createdAt,value
2019-01-11T00:00:55.139Z,91.70
2019-01-11T00:03:22.783Z,91.80
2019-01-11T00:05:50.420Z,91.70
2019-01-11T00:08:18.034Z,91.60
2019-01-11T00:10:45.776Z,91.70
2019-01-11T00:13:13.380Z,91.60
2019-01-11T00:15:42.195Z,91.70
2019-01-11T00:18:09.849Z,91.60
2019-01-11T00:20:37.471Z,91.90
2019-01-11T00:23:05.242Z,92.00
2019-01-11T00:25:32.896Z,91.70
2019-01-11T00:28:00.674Z,91.70
2019-01-11T00:30:30.144Z,91.80
2019-01-11T00:32:57.696Z,92.10
2019-01-11T00:35:25.291Z,91.90
2019-01-11T00:37:52.937Z,91.80
2019-01-11T00:40:21.677Z,92.00
2019-01-11T00:42:49.327Z,92.20
2019-01-11T00:45:17.069Z,92.20
2019-01-11T00:47:46.531Z,92.20
2019-01-11T00:50:14.177Z,92.00
2019-01-11T00:52:41.872Z,91.90
2019-01-11T00:55:10.111Z,91.80
2019-01-11T00:57:37.818Z,92.00
2019-01-11T01:00:09.480Z,92.10
2019-01-11T01:02:37.107Z,92.20
2019-01-11T01:05:05.525Z,92.20
2019-01-11T01:07:33.168Z,92.10
2019-01-11T01:10:00.915Z,91.90
2019-01-11T01:12:29.635Z,91.90
2019-01-11T01:14:57.271Z,92.00
2019-01-11T01:17:24.927Z,92.20
2019-01-11T01:19:54.382Z,92.50
2019-01-11T01:22:22.062Z,92.40
2019-01-11T01:24:49.801Z,92.60
2019-01-11T01:27:17.678Z,93.00
2019-01-11T01:29:45.343Z,93.00
2019-01-11T01:32:13.135Z,92.90
2019-01-11T01:34:40.755Z,92.80
2019-01-11T01:37:08.387Z,92.70
2019-01-11T01:39:35.991Z,92.60
2019-01-11T01:42:04.062Z,93.00
2019-01-11T01:44:31.740Z,92.40
2019-01-11T01:46:59.355Z,92.30
2019-01-11T01:49:28.765Z,92.30
2019-01-11T01:51:56.412Z,92.40
2019-01-11T01:54:24.054Z,92.50
2019-01-11T01:56:51.709Z,92.70
2019-01-11T01:59:19.356Z,92.70
2019-01-11T02:01:46.958Z,92.40
2019-01-11T02:04:16.307Z,92.40
2019-01-11T02:06:44.951Z,92.40
2019-01-11T02:09:12.555Z,92.60
2019-01-11T02:11:40.168Z,92.50
2019-01-11T02:14:07.774Z,92.70
2019-01-11T02:16:35.352Z,92.80
2019-01-11T02:19:03.004Z,93.20
2019-01-11T02:21:30.634Z,93.00
2019-01-11T02:23:58.257Z,93.00
2019-01-11T02:26:25.895Z,92.90
2019-01-11T02:28:53.520Z,92.70
2019-01-11T02:31:21.137Z,93.00
2019-01-11T02:33:48.744Z,93.50
2019-01-11T02:36:16.273Z,93.90
2019-01-11T02:38:43.874Z,93.60
2019-01-11T02:41:11.550Z,93.80
2019-01-11T02:43:39.259Z,94.00
2019-01-11T02:46:08.233Z,94.20
2019-01-11T02:48:35.854Z,94.40
2019-01-11T02:51:03.481Z,94.30
2019-01-11T02:53:32.443Z,94.20
2019-01-11T02:56:00.044Z,94.20
2019-01-11T02:58:27.712Z,94.40
2019-01-11T03:01:14.851Z,94.60
2019-01-11T03:03:44.541Z,94.30
2019-01-11T03:06:13.797Z,94.30
2019-01-11T03:08:41.433Z,94.50
2019-01-11T03:11:09.056Z,94.50
2019-01-11T03:13:38.455Z,94.50
2019-01-11T03:16:06.088Z,94.60
2019-01-11T03:18:33.811Z,94.80
2019-01-11T03:21:01.548Z,94.70
2019-01-11T03:23:29.203Z,94.80
2019-01-11T03:25:56.831Z,95.10
2019-01-11T03:28:24.472Z,95.10
2019-01-11T03:30:54.476Z,95.00
2019-01-11T03:33:34.643Z,95.00
2019-01-11T03:36:02.563Z,94.50
2019-01-11T03:38:30.233Z,94.40
2019-01-11T03:40:57.825Z,94.50
2019-01-11T03:43:26.635Z,94.50
2019-01-11T03:45:54.373Z,94.60
2019-01-11T03:48:22.157Z,94.70
2019-01-11T03:50:49.987Z,94.60
2019-01-11T03:53:17.780Z,94.60
2019-01-11T03:55:45.479Z,94.60
2019-01-11T03:58:13.185Z,94.70
2019-01-11T04:00:40.846Z,94.90
2019-01-11T04:03:08.469Z,95.20
2019-01-11T04:05:36.055Z,95.10
2019-01-11T04:08:03.902Z,95.00
2019-01-11T04:10:31.619Z,95.20
2019-01-11T04:12:59.316Z,95.30
2019-01-11T04:15:27.123Z,95.50
2019-01-11T04:18:13.113Z,95.50
2019-01-11T04:21:00.232Z,95.50
2019-01-11T04:23:27.863Z,95.50
2019-01-11T04:25:55.902Z,95.50
2019-01-11T04:28:23.791Z,95.50
2019-01-11T04:30:51.457Z,95.40
2019-01-11T04:33:19.073Z,95.40
2019-01-11T04:35:46.692Z,95.30
2019-01-11T04:38:14.391Z,95.10
2019-01-11T04:40:42.007Z,95.00
2019-01-11T04:43:09.817Z,95.10
2019-01-11T04:45:37.601Z,95.30
2019-01-11T04:48:17.664Z,95.40
2019-01-11T04:50:45.326Z,95.20
2019-01-11T04:53:12.962Z,95.00
2019-01-11T04:55:40.607Z,95.00
2019-01-11T04:58:08.263Z,94.90
2019-01-11T05:00:55.328Z,94.70
2019-01-11T05:03:23.034Z,94.50
2019-01-11T05:05:50.734Z,94.30
2019-01-11T05:08:18.362Z,94.20
2019-01-11T05:10:46.010Z,94.10
2019-01-11T05:13:27.852Z,94.10
2019-01-11T05:15:55.384Z,94.10
2019-01-11T05:18:24.772Z,94.20
2019-01-11T05:20:52.405Z,94.10
2019-01-11T05:23:20.004Z,94.50
2019-01-11T05:25:47.546Z,94.80
2019-01-11T05:28:15.156Z,94.70
2019-01-11T05:30:42.805Z,94.70
2019-01-11T05:33:11.723Z,94.70
2019-01-11T05:35:39.327Z,94.60
2019-01-11T05:38:06.955Z,94.20
2019-01-11T05:40:34.594Z,93.70
2019-01-11T05:43:21.654Z,93.60
2019-01-11T05:45:49.288Z,93.60
2019-01-11T05:48:16.908Z,93.80
2019-01-11T05:50:45.678Z,93.30
2019-01-11T05:53:14.403Z,93.00
2019-01-11T05:55:46.029Z,93.00
2019-01-11T05:58:34.383Z,93.00
2019-01-11T06:01:02.142Z,92.90
2019-01-11T06:03:29.754Z,93.00
2019-01-11T06:05:57.539Z,93.00
2019-01-11T06:08:26.180Z,93.00
2019-01-11T06:10:53.792Z,92.70
2019-01-11T06:13:21.305Z,92.50
2019-01-11T06:15:48.979Z,92.70
2019-01-11T06:18:16.592Z,92.90
2019-01-11T06:20:44.220Z,92.90
2019-01-11T06:23:24.222Z,93.00
2019-01-11T06:25:51.921Z,92.80
2019-01-11T06:28:19.668Z,93.10
2019-01-11T06:30:47.284Z,93.20
2019-01-11T06:33:14.903Z,93.80
2019-01-11T06:35:42.436Z,93.40
2019-01-11T06:38:10.058Z,93.20
2019-01-11T06:40:57.182Z,93.10
2019-01-11T06:43:26.674Z,93.20
2019-01-11T06:45:54.312Z,93.40
2019-01-11T06:48:33.732Z,93.30
2019-01-11T06:51:01.378Z,93.30
2019-01-11T06:53:29.030Z,93.30
2019-01-11T06:55:56.654Z,93.40
2019-01-11T06:58:24.449Z,93.60
2019-01-11T07:00:52.071Z,93.50
2019-01-11T07:03:19.697Z,93.50
2019-01-11T07:05:49.121Z,93.50
2019-01-11T07:08:16.748Z,93.50
2019-01-11T07:10:44.479Z,93.30
2019-01-11T07:13:12.130Z,92.80
2019-01-11T07:15:39.770Z,92.90
2019-01-11T07:18:07.379Z,92.70
2019-01-11T07:20:34.995Z,92.40
2019-01-11T07:23:02.681Z,92.40
2019-01-11T07:25:31.441Z,92.50
2019-01-11T07:28:01.143Z,92.50
2019-01-11T07:30:47.545Z,92.60
2019-01-11T07:33:15.851Z,93.00
2019-01-11T07:35:52.318Z,93.00
2019-01-11T07:38:19.917Z,93.20
2019-01-11T07:40:49.351Z,93.00
2019-01-11T07:43:16.983Z,93.10
2019-01-11T07:45:44.610Z,92.70
2019-01-11T07:48:12.227Z,92.90
2019-01-11T07:50:39.865Z,93.00
2019-01-11T07:53:07.477Z,92.90
2019-01-11T07:55:35.222Z,92.70
2019-01-11T07:58:02.858Z,92.90
2019-01-11T08:00:30.631Z,92.90
2019-01-11T08:03:17.697Z,93.30
2019-01-11T08:05:45.456Z,92.90
2019-01-11T08:08:13.078Z,93.00
2019-01-11T08:10:40.711Z,93.10
2019-01-11T08:13:08.351Z,93.10
2019-01-11T08:15:37.100Z,93.10
2019-01-11T08:18:24.255Z,93.20
2019-01-11T08:20:56.143Z,93.30
2019-01-11T08:23:34.586Z,93.30
2019-01-11T08:26:02.229Z,93.10
2019-01-11T08:28:31.799Z,93.10
2019-01-11T08:30:59.497Z,93.30
2019-01-11T08:33:27.124Z,93.30
2019-01-11T08:35:54.745Z,93.30
2019-01-11T08:38:22.391Z,93.50
2019-01-11T08:40:49.996Z,93.80
2019-01-11T08:43:17.659Z,93.70
2019-01-11T08:45:45.286Z,93.70
2019-01-11T08:48:12.941Z,93.80
2019-01-11T08:50:40.686Z,93.90
2019-01-11T08:53:08.324Z,93.80
2019-01-11T08:55:35.960Z,94.00
2019-01-11T08:58:03.822Z,94.00
2019-01-11T09:00:32.554Z,94.00
2019-01-11T09:03:00.205Z,94.00
2019-01-11T09:05:27.815Z,93.90
2019-01-11T09:07:55.486Z,93.60
2019-01-11T09:10:24.768Z,93.40
2019-01-11T09:12:52.531Z,93.70
2019-01-11T09:15:20.054Z,93.70
2019-01-11T09:18:01.842Z,93.60
2019-01-11T09:20:29.452Z,93.60
2019-01-11T09:22:57.062Z,93.70
2019-01-11T09:25:24.719Z,93.60
2019-01-11T09:27:52.328Z,93.80
2019-01-11T09:30:21.066Z,93.60
2019-01-11T09:32:48.709Z,93.50
2019-01-11T09:35:17.450Z,93.30
2019-01-11T09:37:45.212Z,93.10
2019-01-11T09:40:13.166Z,93.10
2019-01-11T09:42:40.816Z,93.00
2019-01-11T09:45:08.900Z,93.00
2019-01-11T09:47:36.596Z,93.00
2019-01-11T09:50:05.348Z,93.20
2019-01-11T09:52:33.002Z,93.10
2019-01-11T09:55:00.656Z,93.00
2019-01-11T09:57:28.394Z,93.20
2019-01-11T09:59:56.047Z,93.20
2019-01-11T10:02:34.964Z,93.10
2019-01-11T10:05:04.805Z,93.00
2019-01-11T10:07:33.453Z,92.60
2019-01-11T10:10:01.104Z,92.70
2019-01-11T10:12:28.721Z,93.00
2019-01-11T10:14:56.359Z,93.50
2019-01-11T10:17:23.958Z,93.90
2019-01-11T10:19:51.662Z,94.00
2019-01-11T10:22:19.336Z,94.00
2019-01-11T10:24:47.019Z,93.90
2019-01-11T10:27:14.755Z,93.80
2019-01-11T10:29:42.387Z,93.80
2019-01-11T10:32:11.898Z,94.00
2019-01-11T10:34:39.531Z,94.30
2019-01-11T10:37:19.360Z,94.30
2019-01-11T10:39:47.049Z,94.40
2019-01-11T10:42:15.180Z,94.80
2019-01-11T10:44:42.829Z,95.20
2019-01-11T10:47:10.551Z,95.10
2019-01-11T10:49:38.196Z,94.80
2019-01-11T10:52:05.835Z,94.80
2019-01-11T10:54:43.072Z,94.40
2019-01-11T10:57:11.227Z,94.30
2019-01-11T10:59:39.015Z,94.40
2019-01-11T11:02:07.057Z,94.50
2019-01-11T11:04:35.967Z,94.50
2019-01-11T11:07:03.991Z,94.30
2019-01-11T11:09:31.628Z,94.20
2019-01-11T11:12:11.673Z,94.20
2019-01-11T11:14:39.547Z,94.50
2019-01-11T11:17:07.322Z,94.60
2019-01-11T11:19:34.923Z,94.60
2019-01-11T11:22:02.591Z,94.50
2019-01-11T11:24:30.236Z,94.10
2019-01-11T11:26:57.956Z,94.10
2019-01-11T11:29:45.153Z,94.10
2019-01-11T11:32:12.905Z,93.90
2019-01-11T11:34:43.375Z,93.90
2019-01-11T11:37:25.319Z,94.00
2019-01-11T11:39:53.039Z,94.00
2019-01-11T11:42:20.730Z,94.40
2019-01-11T11:44:48.382Z,94.10
2019-01-11T11:47:16.053Z,94.50
2019-01-11T11:49:43.648Z,94.60
2019-01-11T11:52:11.270Z,94.50
2019-01-11T11:54:38.946Z,95.20
2019-01-11T11:57:06.595Z,95.30
2019-01-11T11:59:34.213Z,95.20
2019-01-11T12:02:01.846Z,95.10
2019-01-11T12:04:29.482Z,95.40
2019-01-11T12:06:57.476Z,95.60
2019-01-11T12:09:27.100Z,95.90
2019-01-11T12:11:54.598Z,96.20
2019-01-11T12:14:22.229Z,96.50
2019-01-11T12:16:49.871Z,96.60
2019-01-11T12:19:17.486Z,96.40
2019-01-11T12:21:47.859Z,96.00
2019-01-11T12:24:14.562Z,95.80
2019-01-11T12:26:42.222Z,95.70
2019-01-11T12:29:09.987Z,95.30
2019-01-11T12:31:37.660Z,95.30
2019-01-11T12:34:05.367Z,95.50
2019-01-11T12:36:33.003Z,95.60
2019-01-11T12:39:00.688Z,95.70
2019-01-11T12:41:28.554Z,95.00
2019-01-11T12:43:56.264Z,95.10
2019-01-11T12:46:24.345Z,95.10
2019-01-11T12:48:52.129Z,95.70
2019-01-11T12:51:21.015Z,95.10
2019-01-11T12:53:48.969Z,95.20
2019-01-11T12:56:16.856Z,95.00
2019-01-11T12:58:45.672Z,94.90
2019-01-11T13:01:13.642Z,95.00
2019-01-11T13:03:41.286Z,94.90
2019-01-11T13:06:09.946Z,94.80
2019-01-11T13:08:37.607Z,94.70
2019-01-11T13:11:05.356Z,94.50
2019-01-11T13:13:33.060Z,94.20
2019-01-11T13:16:00.955Z,94.10
2019-01-11T13:18:28.597Z,94.20
2019-01-11T13:20:56.262Z,94.20
2019-01-11T13:23:23.890Z,94.10
2019-01-11T13:25:51.551Z,94.00
2019-01-11T13:28:19.180Z,93.90
2019-01-11T13:30:49.706Z,93.70
2019-01-11T13:33:17.294Z,93.50
2019-01-11T13:35:45.057Z,93.20
2019-01-11T13:38:12.692Z,93.10
2019-01-11T13:40:41.538Z,92.80
2019-01-11T13:43:09.114Z,93.30
2019-01-11T13:45:37.084Z,93.50
2019-01-11T13:48:04.787Z,93.70
2019-01-11T13:50:40.075Z,93.70
2019-01-11T13:53:09.790Z,94.00
2019-01-11T13:55:37.422Z,93.80
2019-01-11T13:58:05.062Z,93.70
2019-01-11T14:00:32.700Z,94.30
2019-01-11T14:03:00.433Z,94.40
2019-01-11T14:05:28.142Z,94.40
2019-01-11T14:07:55.776Z,94.60
2019-01-11T14:10:24.633Z,94.60
2019-01-11T14:12:52.253Z,94.40
2019-01-11T14:15:20.023Z,94.40
2019-01-11T14:17:47.874Z,94.40
2019-01-11T14:20:15.612Z,94.40
2019-01-11T14:22:43.321Z,94.50
2019-01-11T14:25:12.780Z,94.40
2019-01-11T14:27:40.403Z,94.60
2019-01-11T14:30:08.728Z,94.40
2019-01-11T14:32:36.479Z,94.40
2019-01-11T14:35:05.137Z,94.10
2019-01-11T14:37:32.810Z,94.20
2019-01-11T14:40:00.625Z,94.20
2019-01-11T14:42:30.010Z,94.50
2019-01-11T14:44:57.675Z,94.60
2019-01-11T14:47:25.324Z,94.20
2019-01-11T14:49:53.090Z,94.20
2019-01-11T14:52:20.825Z,94.10
2019-01-11T14:54:48.532Z,94.10
2019-01-11T14:57:16.842Z,94.20
2019-01-11T14:59:44.639Z,94.40
2019-01-11T15:02:12.277Z,94.50
2019-01-11T15:04:39.955Z,94.40
2019-01-11T15:07:07.609Z,94.40
2019-01-11T15:09:37.040Z,94.50
2019-01-11T15:12:04.881Z,94.60
2019-01-11T15:14:32.540Z,94.50
2019-01-11T15:17:00.163Z,94.70
2019-01-11T15:19:27.831Z,94.50
2019-01-11T15:21:55.695Z,94.60
2019-01-11T15:24:23.294Z,94.50
2019-01-11T15:26:51.028Z,94.30
2019-01-11T15:29:18.637Z,94.20
2019-01-11T15:31:48.080Z,94.10
2019-01-11T15:34:15.726Z,94.20
2019-01-11T15:36:43.392Z,94.60
2019-01-11T15:39:11.108Z,94.70
2019-01-11T15:41:40.589Z,94.80
2019-01-11T15:44:08.238Z,94.80
2019-01-11T15:46:35.954Z,94.90
2019-01-11T15:49:03.584Z,95.00
2019-01-11T15:51:31.488Z,95.10
2019-01-11T15:54:00.349Z,95.00
2019-01-11T15:56:28.420Z,94.90
2019-01-11T15:58:56.199Z,95.10
2019-01-11T16:01:23.882Z,94.90
2019-01-11T16:03:51.670Z,94.70
2019-01-11T16:06:37.953Z,94.50
2019-01-11T16:10:00.795Z,94.30
2019-01-11T16:13:09.891Z,93.90
2019-01-11T16:16:31.314Z,93.60
2019-01-11T16:18:59.005Z,93.60
2019-01-11T16:21:26.660Z,93.60
2019-01-11T16:23:54.423Z,93.50
2019-01-11T16:26:22.011Z,93.30
2019-01-11T16:28:49.648Z,93.40
2019-01-11T16:31:17.286Z,93.50
2019-01-11T16:33:44.910Z,93.60
2019-01-11T16:36:12.483Z,93.30
2019-01-11T16:38:40.163Z,93.00
2019-01-11T16:41:13.989Z,92.90
2019-01-11T16:43:41.663Z,92.60
2019-01-11T16:46:09.332Z,92.40
2019-01-11T16:48:36.990Z,92.40
2019-01-11T16:51:05.642Z,92.40
2019-01-11T16:53:33.402Z,92.40
2019-01-11T16:56:01.071Z,92.30
2019-01-11T16:58:28.729Z,92.20
2019-01-11T17:00:56.402Z,92.00
2019-01-11T17:03:24.061Z,92.00
2019-01-11T17:05:51.731Z,92.10
2019-01-11T17:08:21.497Z,91.80
2019-01-11T17:10:49.664Z,91.90
2019-01-11T17:13:17.376Z,91.90
2019-01-11T17:15:45.061Z,91.90
2019-01-11T17:18:12.746Z,91.90
2019-01-11T17:20:40.515Z,92.10
2019-01-11T17:23:08.178Z,92.40
2019-01-11T17:25:35.938Z,92.40
2019-01-11T17:28:03.682Z,92.60
2019-01-11T17:30:31.528Z,92.70
2019-01-11T17:33:00.791Z,92.80
2019-01-11T17:35:28.820Z,92.70
2019-01-11T17:37:56.444Z,92.70
2019-01-11T17:40:24.186Z,92.70
2019-01-11T17:42:54.442Z,92.50
2019-01-11T17:45:22.415Z,92.70
2019-01-11T17:47:51.444Z,92.10
2019-01-11T17:50:19.323Z,91.80
2019-01-11T17:52:48.091Z,91.80
2019-01-11T17:55:15.971Z,91.90
2019-01-11T17:57:43.847Z,91.70
2019-01-11T18:00:15.262Z,91.10
2019-01-11T18:02:43.148Z,90.70
2019-01-11T18:05:11.722Z,90.70
2019-01-11T18:07:39.538Z,90.80
2019-01-11T18:10:08.475Z,91.10
2019-01-11T18:12:36.131Z,91.00
2019-01-11T18:15:10.079Z,90.90
2019-01-11T18:17:37.784Z,90.50
2019-01-11T18:20:08.895Z,90.10
2019-01-11T18:22:36.646Z,89.50
2019-01-11T18:25:05.312Z,89.20
2019-01-11T18:27:32.943Z,89.40
2019-01-11T18:30:00.730Z,89.00
2019-01-11T18:32:30.174Z,89.20
2019-01-11T18:34:57.881Z,89.20
2019-01-11T18:37:25.421Z,88.70
2019-01-11T18:39:57.870Z,89.00
2019-01-11T18:42:23.994Z,88.60
2019-01-11T18:44:51.738Z,89.10
2019-01-11T18:47:32.331Z,88.70
2019-01-11T18:50:00.012Z,88.60
2019-01-11T18:52:28.022Z,89.50
2019-01-11T18:54:56.224Z,89.20
2019-01-11T18:57:24.017Z,87.70
2019-01-11T18:59:51.954Z,87.90
2019-01-11T19:02:27.657Z,87.80
2019-01-11T19:04:55.344Z,88.30
2019-01-11T19:07:23.045Z,88.90
2019-01-11T19:09:50.665Z,88.00
2019-01-11T19:12:19.838Z,88.10
2019-01-11T19:14:47.995Z,89.00
2019-01-11T19:17:15.801Z,89.30
2019-01-11T19:19:43.869Z,89.10
2019-01-11T19:22:12.028Z,88.60
2019-01-11T19:24:39.863Z,87.90
2019-01-11T19:27:20.683Z,87.70
2019-01-11T19:29:48.476Z,86.90
2019-01-11T19:32:16.389Z,86.90
2019-01-11T19:34:44.065Z,87.50
2019-01-11T19:37:11.884Z,87.80
2019-01-11T19:39:39.913Z,88.10
2019-01-11T19:42:07.906Z,88.10
2019-01-11T19:44:37.533Z,88.60
2019-01-11T19:47:05.210Z,87.40
2019-01-11T19:49:32.896Z,88.20
2019-01-11T19:52:00.571Z,87.90
2019-01-11T19:54:30.199Z,87.80
2019-01-11T19:56:57.857Z,87.90
2019-01-11T19:59:25.689Z,87.70
2019-01-11T20:01:53.313Z,87.20
2019-01-11T20:04:20.997Z,87.50
2019-01-11T20:06:48.800Z,87.40
2019-01-11T20:09:16.459Z,88.10
2019-01-11T20:11:45.502Z,87.80
2019-01-11T20:14:13.136Z,87.70
2019-01-11T20:16:42.712Z,87.80
2019-01-11T20:19:12.196Z,88.50
2019-01-11T20:21:39.876Z,88.40
2019-01-11T20:24:08.736Z,88.60
2019-01-11T20:26:36.425Z,88.60
2019-01-11T20:29:04.102Z,87.80
2019-01-11T20:31:31.856Z,88.00
2019-01-11T20:33:59.528Z,88.20
2019-01-11T20:36:30.119Z,87.70
2019-01-11T20:38:57.844Z,88.00
2019-01-11T20:41:25.524Z,87.90
2019-01-11T20:43:53.332Z,87.80
2019-01-11T20:46:21.169Z,87.90
2019-01-11T20:48:50.426Z,88.00
2019-01-11T20:51:21.194Z,87.60
2019-01-11T20:53:51.330Z,87.40
2019-01-11T20:56:18.972Z,86.50
2019-01-11T20:58:48.433Z,87.00
2019-01-11T21:01:16.877Z,87.00
2019-01-11T21:03:46.387Z,86.40
2019-01-11T21:06:15.970Z,85.40
2019-01-11T21:08:43.743Z,85.40
2019-01-11T21:11:30.858Z,84.60
2019-01-11T21:13:58.530Z,84.40
2019-01-11T21:16:26.210Z,85.70
2019-01-11T21:18:53.842Z,85.20
2019-01-11T21:21:21.536Z,86.00
2019-01-11T21:23:49.249Z,86.30
2019-01-11T21:26:19.970Z,85.20
2019-01-11T21:28:47.700Z,84.70
2019-01-11T21:31:15.310Z,84.50
2019-01-11T21:33:43.002Z,84.50
2019-01-11T21:36:10.667Z,84.20
2019-01-11T21:38:38.313Z,84.20
2019-01-11T21:41:06.005Z,84.50
2019-01-11T21:43:33.642Z,86.10
2019-01-11T21:46:03.509Z,85.10
2019-01-11T21:48:30.779Z,84.70
2019-01-11T21:50:58.533Z,84.80
2019-01-11T21:53:26.202Z,83.30
2019-01-11T21:55:53.935Z,83.40
2019-01-11T21:58:21.569Z,82.70
2019-01-11T22:00:50.646Z,82.90
2019-01-11T22:03:20.851Z,83.10
2019-01-11T22:05:48.608Z,83.10
2019-01-11T22:08:16.505Z,83.00
2019-01-11T22:10:44.203Z,82.80
2019-01-11T22:13:11.889Z,83.00
2019-01-11T22:15:41.279Z,83.80
2019-01-11T22:18:08.922Z,83.90
2019-01-11T22:20:36.544Z,84.70
2019-01-11T22:23:04.193Z,84.90
2019-01-11T22:25:31.843Z,85.30
2019-01-11T22:27:59.521Z,85.00
2019-01-11T22:30:30.490Z,84.50
2019-01-11T22:32:56.645Z,83.90
2019-01-11T22:35:24.311Z,83.60
2019-01-11T22:37:52.023Z,83.20
2019-01-11T22:40:21.247Z,83.30
2019-01-11T22:42:53.854Z,84.00
2019-01-11T22:45:21.663Z,84.50
2019-01-11T22:47:49.341Z,83.40
2019-01-11T22:50:17.042Z,83.60
2019-01-11T22:52:44.769Z,83.50
2019-01-11T22:55:13.244Z,83.80
2019-01-11T22:57:40.933Z,83.20
2019-01-11T23:00:50.337Z,82.80
2019-01-11T23:03:39.899Z,82.10
2019-01-11T23:06:28.570Z,82.80
2019-01-11T23:08:56.337Z,82.50
2019-01-11T23:11:51.081Z,82.00
2019-01-11T23:14:20.605Z,82.00
2019-01-11T23:17:18.001Z,82.30
2019-01-11T23:19:57.801Z,81.90
2019-01-11T23:22:25.485Z,82.40
2019-01-11T23:24:53.275Z,83.00
2019-01-11T23:27:20.934Z,83.20
2019-01-11T23:29:48.574Z,83.10
2019-01-11T23:32:16.228Z,83.40
2019-01-11T23:34:43.888Z,84.10
2019-01-11T23:37:11.567Z,83.50
2019-01-11T23:39:39.208Z,84.00
2019-01-11T23:42:06.902Z,83.40
2019-01-11T23:44:34.562Z,83.20
2019-01-11T23:47:02.202Z,82.80
2019-01-11T23:49:29.887Z,82.60
2019-01-11T23:51:57.676Z,82.60
2019-01-11T23:54:25.322Z,82.40
2019-01-11T23:56:52.960Z,81.80
2019-01-11T23:59:20.650Z,82.10
